Time;durP1;ratioP1;P1;durP2;ratioP2;P2;SDS_P1;SDS_P2;PMS_P1;PMS_P2;Temp;Humidity;BMP_temperature;BMP_pressure;BME280_temperature;BME280_humidity;BME280_pressure;Samples;Min_cycle;Max_cycle;Signal;HPM_P1;HPM_P2
2022/09/22 00:01:17;;;;;;;1.02;0.60;;;;;;;;;;5024554;28;20612;-74
2022/09/22 00:03:48;;;;;;;0.60;0.60;;;;;;;;;;5013038;28;20050;-71
2022/09/22 00:06:18;;;;;;;0.98;0.77;;;;;;;;;;5026375;28;20052;-72
2022/09/22 00:08:47;;;;;;;0.45;0.45;;;;;;;;;;5027286;28;20053;-71
2022/09/22 00:11:17;;;;;;;1.70;1.00;;;;;;;;;;5026222;28;20067;-71
2022/09/22 00:13:47;;;;;;;2.78;0.68;;;;;;;;;;5025590;28;20054;-71
2022/09/22 00:16:16;;;;;;;1.10;0.80;;;;;;;;;;5022240;28;20361;-72
2022/09/22 00:18:44;;;;;;;1.10;0.63;;;;;;;;;;5024346;28;20050;-79
2022/09/22 00:21:17;;;;;;;1.00;0.90;;;;;;;;;;5021291;28;20281;-70
2022/09/22 00:23:46;;;;;;;2.70;0.73;;;;;;;;;;5022811;28;20056;-72
2022/09/22 00:26:16;;;;;;;0.35;0.35;;;;;;;;;;5023882;28;20048;-77
2022/09/22 00:28:46;;;;;;;1.13;0.88;;;;;;;;;;5028369;28;20527;-73
2022/09/22 00:31:16;;;;;;;1.70;0.80;;;;;;;;;;5019269;28;20398;-73
2022/09/22 00:33:46;;;;;;;1.63;1.17;;;;;;;;;;5022044;28;20132;-74
2022/09/22 00:36:16;;;;;;;0.82;0.73;;;;;;;;;;5017700;28;20536;-77
2022/09/22 00:38:49;;;;;;;0.95;0.77;;;;;;;;;;5022066;28;20068;-71
2022/09/22 00:41:18;;;;;;;0.70;0.50;;;;;;;;;;5016123;28;20485;-74
2022/09/22 00:43:48;;;;;;;0.68;0.65;;;;;;;;;;5018983;28;20054;-72
2022/09/22 00:46:18;;;;;;;0.47;0.47;;;;;;;;;;5022692;28;20057;-72
2022/09/22 00:48:48;;;;;;;2.38;0.93;;;;;;;;;;5028963;28;20080;-71
2022/09/22 00:51:21;;;;;;;1.63;0.85;;;;;;;;;;5024015;28;20041;-70
2022/09/22 00:53:50;;;;;;;0.98;0.88;;;;;;;;;;5023567;28;20052;-74
2022/09/22 00:56:19;;;;;;;0.38;0.38;;;;;;;;;;5021594;28;20034;-70
2022/09/22 00:58:49;;;;;;;2.28;1.08;;;;;;;;;;5021098;28;20053;-71
2022/09/22 01:01:18;;;;;;;0.50;0.50;;;;;;;;;;5024698;28;20472;-70
2022/09/22 01:03:47;;;;;;;1.08;0.43;;;;;;;;;;5021715;28;20063;-70
2022/09/22 01:06:19;;;;;;;0.80;0.75;;;;;;;;;;5025103;28;20049;-70
2022/09/22 01:08:48;;;;;;;0.65;0.65;;;;;;;;;;5026960;28;20093;-83
2022/09/22 01:11:19;;;;;;;1.45;0.50;;;;;;;;;;5023502;28;20053;-72
2022/09/22 01:13:50;;;;;;;2.30;0.63;;;;;;;;;;5024458;28;20053;-70
2022/09/22 01:16:26;;;;;;;0.88;0.63;;;;;;;;;;5027007;28;20048;-70
2022/09/22 01:18:59;;;;;;;1.58;0.70;;;;;;;;;;5031291;28;20081;-73
2022/09/22 01:21:35;;;;;;;1.05;0.60;;;;;;;;;;5029844;28;20052;-71
2022/09/22 01:24:24;;;;;;;1.52;1.02;;;;;;;;;;5032792;28;20055;-73
2022/09/22 01:27:06;;;;;;;0.38;0.38;;;;;;;;;;5005442;28;20750;-70
2022/09/22 01:30:07;;;;;;;1.27;0.68;;;;;;;;;;5023226;28;20054;-73
2022/09/22 01:32:41;;;;;;;0.75;0.45;;;;;;;;;;5028592;28;20137;-71
2022/09/22 01:35:13;;;;;;;0.45;0.40;;;;;;;;;;5019399;28;20068;-70
2022/09/22 01:37:45;;;;;;;1.05;0.93;;;;;;;;;;5027588;28;20516;-71
2022/09/22 01:40:16;;;;;;;1.10;0.52;;;;;;;;;;5029221;28;20048;-70
2022/09/22 01:42:45;;;;;;;1.35;1.13;;;;;;;;;;5028463;28;20111;-75
2022/09/22 01:45:16;;;;;;;0.43;0.43;;;;;;;;;;5028178;28;20091;-74
2022/09/22 01:47:48;;;;;;;0.90;0.90;;;;;;;;;;5031564;28;20046;-78
2022/09/22 01:50:19;;;;;;;0.80;0.47;;;;;;;;;;5027558;28;20041;-74
2022/09/22 01:52:47;;;;;;;0.40;0.40;;;;;;;;;;5028968;28;20053;-72
2022/09/22 01:55:20;;;;;;;0.43;0.43;;;;;;;;;;5024965;28;20057;-71
2022/09/22 01:57:50;;;;;;;0.43;0.43;;;;;;;;;;5029600;28;20042;-76
2022/09/22 02:00:19;;;;;;;0.70;0.50;;;;;;;;;;5029949;28;20591;-70
2022/09/22 02:02:51;;;;;;;4.55;0.90;;;;;;;;;;5027480;28;20057;-74
2022/09/22 02:05:23;;;;;;;0.68;0.65;;;;;;;;;;5021067;28;20053;-74
2022/09/22 02:07:54;;;;;;;5.72;1.00;;;;;;;;;;5023386;28;20037;-72
2022/09/22 02:10:25;;;;;;;0.65;0.43;;;;;;;;;;5030006;28;20041;-70
2022/09/22 02:12:54;;;;;;;1.27;1.00;;;;;;;;;;5027472;28;20060;-70
2022/09/22 02:18:13;;;;;;;0.40;0.40;;;;;;;;;;5025257;28;20610;-70
2022/09/22 02:20:41;;;;;;;1.98;0.63;;;;;;;;;;5021301;28;20059;-71
2022/09/22 02:23:10;;;;;;;1.88;1.00;;;;;;;;;;5026989;28;20049;-72
2022/09/22 02:25:40;;;;;;;2.55;1.35;;;;;;;;;;5020611;28;20137;-71
2022/09/22 02:28:09;;;;;;;0.75;0.75;;;;;;;;;;5026366;28;20049;-70
2022/09/22 02:30:38;;;;;;;0.95;0.55;;;;;;;;;;5019094;28;20386;-70
2022/09/22 02:33:06;;;;;;;1.33;0.75;;;;;;;;;;5027325;28;20051;-70
2022/09/22 02:35:37;;;;;;;0.57;0.43;;;;;;;;;;5028498;28;20051;-72
2022/09/22 02:38:11;;;;;;;0.80;0.80;;;;;;;;;;5025002;28;20379;-73
2022/09/22 02:40:42;;;;;;;1.75;0.60;;;;;;;;;;5030473;28;20053;-78
2022/09/22 02:43:15;;;;;;;0.20;0.20;;;;;;;;;;5028003;28;20060;-70
2022/09/22 02:45:46;;;;;;;1.40;0.77;;;;;;;;;;5029017;28;20053;-74
2022/09/22 02:48:17;;;;;;;0.32;0.30;;;;;;;;;;5026798;28;20163;-78
2022/09/22 02:50:49;;;;;;;0.17;0.17;;;;;;;;;;5026326;28;20045;-75
2022/09/22 02:53:18;;;;;;;0.47;0.40;;;;;;;;;;5027326;28;20076;-70
2022/09/22 02:55:49;;;;;;;1.90;0.75;;;;;;;;;;5017974;28;20050;-70
2022/09/22 02:58:18;;;;;;;0.75;0.70;;;;;;;;;;5025082;28;20132;-70
2022/09/22 03:00:47;;;;;;;0.65;0.65;;;;;;;;;;5024939;28;20053;-71
2022/09/22 03:03:15;;;;;;;2.08;0.68;;;;;;;;;;5023399;28;20084;-74
2022/09/22 03:05:44;;;;;;;0.32;0.32;;;;;;;;;;5024126;28;20045;-70
2022/09/22 03:08:13;;;;;;;0.32;0.32;;;;;;;;;;5027773;28;20489;-81
2022/09/22 03:10:42;;;;;;;1.75;1.00;;;;;;;;;;5027295;28;20060;-71
2022/09/22 03:13:10;;;;;;;0.60;0.60;;;;;;;;;;5022363;28;20052;-72
2022/09/22 03:15:45;;;;;;;0.77;0.77;;;;;;;;;;5024163;28;20049;-72
2022/09/22 03:18:14;;;;;;;0.50;0.50;;;;;;;;;;5026204;28;20049;-73
2022/09/22 03:20:42;;;;;;;0.68;0.68;;;;;;;;;;5022775;28;20409;-70
2022/09/22 03:23:11;;;;;;;0.68;0.68;;;;;;;;;;5024428;28;20045;-71
2022/09/22 03:25:40;;;;;;;0.95;0.50;;;;;;;;;;5016796;28;20069;-70
2022/09/22 03:28:09;;;;;;;0.40;0.40;;;;;;;;;;5021223;28;20504;-71
2022/09/22 03:30:39;;;;;;;0.82;0.82;;;;;;;;;;5015994;28;20329;-70
2022/09/22 03:33:07;;;;;;;1.38;0.70;;;;;;;;;;5025935;28;20053;-70
2022/09/22 03:35:37;;;;;;;0.40;0.40;;;;;;;;;;5026381;28;20045;-70
2022/09/22 03:38:09;;;;;;;1.90;1.00;;;;;;;;;;5026997;28;20065;-73
2022/09/22 03:40:38;;;;;;;0.50;0.50;;;;;;;;;;5022227;28;20046;-72
2022/09/22 03:43:10;;;;;;;0.50;0.50;;;;;;;;;;5018026;28;20048;-70
2022/09/22 03:45:43;;;;;;;0.95;0.60;;;;;;;;;;5015996;28;20046;-70
2022/09/22 03:48:12;;;;;;;1.15;0.65;;;;;;;;;;5024709;28;20068;-70
2022/09/22 03:50:40;;;;;;;1.73;1.23;;;;;;;;;;5022875;28;20046;-71
2022/09/22 03:53:11;;;;;;;0.80;0.80;;;;;;;;;;5026472;28;20049;-71
2022/09/22 03:55:39;;;;;;;0.43;0.43;;;;;;;;;;5025267;28;20535;-70
2022/09/22 03:58:08;;;;;;;1.02;1.02;;;;;;;;;;5026796;28;20062;-71
2022/09/22 04:00:37;;;;;;;2.00;0.90;;;;;;;;;;5022768;28;20045;-75
2022/09/22 04:03:05;;;;;;;1.00;0.95;;;;;;;;;;5024618;28;20042;-71
2022/09/22 04:05:34;;;;;;;0.30;0.30;;;;;;;;;;5021260;28;20065;-71
2022/09/22 04:08:02;;;;;;;0.47;0.47;;;;;;;;;;5024935;28;20417;-70
2022/09/22 04:10:30;;;;;;;2.05;0.75;;;;;;;;;;5024726;28;20174;-70
2022/09/22 04:12:59;;;;;;;0.80;0.70;;;;;;;;;;5027668;28;20053;-71
2022/09/22 04:15:28;;;;;;;0.60;0.52;;;;;;;;;;5025488;28;20273;-70
2022/09/22 04:17:57;;;;;;;1.05;1.05;;;;;;;;;;5020408;28;20049;-80
2022/09/22 04:20:26;;;;;;;1.13;1.02;;;;;;;;;;5026192;28;20049;-70
2022/09/22 04:22:54;;;;;;;1.08;0.82;;;;;;;;;;5023865;28;20053;-71
2022/09/22 04:25:23;;;;;;;1.20;0.60;;;;;;;;;;5029231;28;20067;-73
2022/09/22 04:27:51;;;;;;;3.55;1.50;;;;;;;;;;5027760;28;20072;-74
2022/09/22 04:30:19;;;;;;;4.80;0.77;;;;;;;;;;5029699;28;20049;-74
2022/09/22 04:32:49;;;;;;;2.58;1.25;;;;;;;;;;5022476;28;20045;-78
2022/09/22 04:35:17;;;;;;;2.20;0.75;;;;;;;;;;5018101;28;20044;-77
2022/09/22 04:37:45;;;;;;;1.13;0.75;;;;;;;;;;5020938;28;20038;-71
2022/09/22 04:40:14;;;;;;;0.57;0.50;;;;;;;;;;5025714;28;20042;-80
2022/09/22 04:42:45;;;;;;;2.42;1.05;;;;;;;;;;5020121;28;20046;-75
2022/09/22 04:45:15;;;;;;;2.20;1.40;;;;;;;;;;5020044;28;20057;-72
2022/09/22 04:47:44;;;;;;;1.08;1.08;;;;;;;;;;5021869;28;20049;-70
2022/09/22 04:50:14;;;;;;;0.63;0.52;;;;;;;;;;5023085;28;20239;-70
2022/09/22 04:52:45;;;;;;;1.13;1.02;;;;;;;;;;5024035;28;20528;-71
2022/09/22 04:55:14;;;;;;;0.88;0.77;;;;;;;;;;5028757;28;20519;-70
2022/09/22 04:57:42;;;;;;;9.13;1.02;;;;;;;;;;5025638;28;20053;-78
2022/09/22 05:00:11;;;;;;;1.17;1.08;;;;;;;;;;5021363;28;20054;-70
2022/09/22 05:02:39;;;;;;;3.50;0.75;;;;;;;;;;5025951;28;20061;-71
2022/09/22 05:05:08;;;;;;;0.63;0.60;;;;;;;;;;5027689;28;20381;-70
2022/09/22 05:07:41;;;;;;;0.10;0.10;;;;;;;;;;5022468;28;20049;-72
2022/09/22 05:10:10;;;;;;;0.40;0.40;;;;;;;;;;5024208;28;20055;-70
2022/09/22 05:12:39;;;;;;;0.57;0.50;;;;;;;;;;5023133;28;20509;-69
2022/09/22 05:15:08;;;;;;;1.05;0.77;;;;;;;;;;5024004;28;20486;-72
2022/09/22 05:17:37;;;;;;;0.55;0.47;;;;;;;;;;5027055;28;20421;-73
2022/09/22 05:20:06;;;;;;;1.77;0.95;;;;;;;;;;5030844;28;20052;-73
2022/09/22 05:22:34;;;;;;;1.35;1.23;;;;;;;;;;5028810;28;20061;-72
2022/09/22 05:25:10;;;;;;;1.40;0.80;;;;;;;;;;5031535;28;20044;-70
2022/09/22 05:27:38;;;;;;;0.57;0.57;;;;;;;;;;5031186;28;20088;-72
2022/09/22 05:30:07;;;;;;;1.17;0.90;;;;;;;;;;5030656;28;20062;-73
2022/09/22 05:32:35;;;;;;;2.25;0.57;;;;;;;;;;5023546;28;20567;-71
2022/09/22 05:35:03;;;;;;;0.57;0.57;;;;;;;;;;5024523;28;20065;-70
2022/09/22 05:37:32;;;;;;;2.05;0.68;;;;;;;;;;5025698;28;20050;-70
2022/09/22 05:40:00;;;;;;;1.05;0.70;;;;;;;;;;5030938;28;20055;-74
2022/09/22 05:42:35;;;;;;;0.60;0.60;;;;;;;;;;5029026;28;20061;-75
2022/09/22 05:45:06;;;;;;;1.80;0.57;;;;;;;;;;5022659;28;20042;-70
2022/09/22 05:47:34;;;;;;;2.15;0.88;;;;;;;;;;5022197;28;20049;-72
2022/09/22 05:50:02;;;;;;;0.57;0.57;;;;;;;;;;5017701;28;20077;-72
2022/09/22 05:52:31;;;;;;;1.23;0.82;;;;;;;;;;5024661;28;20072;-75
2022/09/22 05:55:00;;;;;;;0.60;0.60;;;;;;;;;;5020810;28;20049;-72
2022/09/22 05:57:32;;;;;;;0.63;0.63;;;;;;;;;;5018872;28;20045;-70
2022/09/22 06:00:01;;;;;;;1.35;1.25;;;;;;;;;;5024365;28;20057;-70
2022/09/22 06:02:29;;;;;;;1.83;1.45;;;;;;;;;;5017767;28;20497;-69
2022/09/22 06:04:57;;;;;;;1.60;0.95;;;;;;;;;;5019517;28;20041;-70
2022/09/22 06:07:26;;;;;;;1.17;0.68;;;;;;;;;;5016073;28;20060;-71
2022/09/22 06:09:57;;;;;;;0.35;0.35;;;;;;;;;;5031821;28;20072;-70
2022/09/22 06:12:25;;;;;;;0.30;0.30;;;;;;;;;;5016660;28;20038;-70
2022/09/22 06:14:56;;;;;;;3.33;0.68;;;;;;;;;;5022826;28;20055;-70
2022/09/22 06:17:24;;;;;;;0.95;0.63;;;;;;;;;;5019492;28;20045;-70
2022/09/22 06:19:53;;;;;;;0.40;0.40;;;;;;;;;;5030853;28;20132;-72
2022/09/22 06:22:23;;;;;;;1.45;0.75;;;;;;;;;;5019309;28;20481;-70
2022/09/22 06:24:51;;;;;;;1.95;1.10;;;;;;;;;;5029809;28;20462;-70
2022/09/22 06:27:19;;;;;;;0.40;0.40;;;;;;;;;;5022460;28;20057;-71
2022/09/22 06:29:48;;;;;;;2.95;1.73;;;;;;;;;;5025634;28;20128;-70
2022/09/22 06:32:17;;;;;;;0.63;0.63;;;;;;;;;;5013324;28;20046;-72
2022/09/22 06:34:46;;;;;;;1.63;1.50;;;;;;;;;;5020930;28;20092;-73
2022/09/22 06:37:14;;;;;;;1.75;0.82;;;;;;;;;;5027733;28;20057;-77
2022/09/22 06:39:43;;;;;;;1.02;0.90;;;;;;;;;;5023835;28;20056;-73
2022/09/22 06:42:14;;;;;;;2.42;1.15;;;;;;;;;;5024057;28;20077;-71
2022/09/22 06:44:43;;;;;;;0.75;0.35;;;;;;;;;;5024979;28;20054;-74
2022/09/22 06:47:11;;;;;;;2.45;1.73;;;;;;;;;;5026980;28;20131;-70
2022/09/22 06:49:41;;;;;;;0.43;0.38;;;;;;;;;;5022205;28;20053;-70
2022/09/22 06:52:11;;;;;;;2.05;1.55;;;;;;;;;;5019542;28;20064;-70
2022/09/22 06:54:41;;;;;;;1.65;0.90;;;;;;;;;;5024324;28;20041;-75
2022/09/22 06:57:10;;;;;;;2.38;1.45;;;;;;;;;;5015855;28;20046;-73
2022/09/22 06:59:40;;;;;;;1.58;1.05;;;;;;;;;;5018585;28;20075;-70
2022/09/22 07:02:09;;;;;;;1.23;1.13;;;;;;;;;;5013369;28;20054;-72
2022/09/22 07:04:38;;;;;;;2.13;1.20;;;;;;;;;;5017237;28;20510;-75
2022/09/22 07:07:08;;;;;;;0.80;0.80;;;;;;;;;;5021534;28;20148;-72
2022/09/22 07:09:37;;;;;;;1.40;1.20;;;;;;;;;;5022502;28;20049;-73
2022/09/22 07:12:06;;;;;;;1.92;0.90;;;;;;;;;;5017546;28;20054;-78
2022/09/22 07:14:34;;;;;;;1.58;1.08;;;;;;;;;;5022508;28;20129;-75
2022/09/22 07:17:02;;;;;;;2.75;1.85;;;;;;;;;;5024092;28;20104;-76
2022/09/22 07:19:35;;;;;;;2.03;1.60;;;;;;;;;;5022096;28;20045;-74
2022/09/22 07:22:03;;;;;;;0.63;0.63;;;;;;;;;;5026445;28;20053;-76
2022/09/22 07:24:33;;;;;;;1.70;0.70;;;;;;;;;;5021421;28;20559;-71
2022/09/22 07:27:03;;;;;;;1.35;0.95;;;;;;;;;;5020863;28;20045;-71
2022/09/22 07:29:32;;;;;;;0.82;0.80;;;;;;;;;;5021672;28;20104;-74
2022/09/22 07:32:01;;;;;;;0.95;0.93;;;;;;;;;;5024154;28;20607;-72
2022/09/22 07:34:30;;;;;;;3.08;1.65;;;;;;;;;;5022290;28;20144;-73
2022/09/22 07:36:59;;;;;;;0.98;0.90;;;;;;;;;;5023790;28;20042;-72
2022/09/22 07:39:28;;;;;;;1.10;1.00;;;;;;;;;;5024600;28;20076;-77
2022/09/22 07:41:58;;;;;;;1.25;1.15;;;;;;;;;;5022985;28;20054;-74
2022/09/22 07:47:13;;;;;;;3.53;1.27;;;;;;;;;;5017653;28;20570;-76
2022/09/22 07:49:41;;;;;;;1.85;1.48;;;;;;;;;;5023530;28;20446;-73
2022/09/22 07:52:10;;;;;;;1.08;0.77;;;;;;;;;;5022854;28;20556;-77
2022/09/22 07:54:39;;;;;;;0.63;0.57;;;;;;;;;;5026908;28;20049;-76
2022/09/22 07:57:09;;;;;;;2.47;1.13;;;;;;;;;;5026179;28;20041;-76
2022/09/22 07:59:40;;;;;;;1.10;0.88;;;;;;;;;;5025809;28;20049;-77
2022/09/22 08:02:10;;;;;;;0.77;0.77;;;;;;;;;;5023321;28;20045;-76
2022/09/22 08:04:39;;;;;;;1.42;0.70;;;;;;;;;;5016949;28;20053;-76
2022/09/22 08:07:08;;;;;;;0.68;0.60;;;;;;;;;;5027626;28;20068;-76
2022/09/22 08:09:36;;;;;;;2.08;1.15;;;;;;;;;;5030018;28;20045;-78
2022/09/22 08:12:05;;;;;;;0.60;0.60;;;;;;;;;;5025688;28;20045;-77
2022/09/22 08:14:35;;;;;;;3.13;1.00;;;;;;;;;;5026718;28;20569;-76
2022/09/22 08:17:11;;;;;;;1.73;0.93;;;;;;;;;;5026599;28;20060;-77
2022/09/22 08:19:40;;;;;;;0.60;0.60;;;;;;;;;;5029979;28;20053;-77
2022/09/22 08:22:11;;;;;;;0.82;0.60;;;;;;;;;;5025650;28;20067;-77
2022/09/22 08:24:43;;;;;;;0.77;0.57;;;;;;;;;;5026410;28;20096;-76
2022/09/22 08:27:11;;;;;;;1.13;0.98;;;;;;;;;;5026043;28;20136;-78
2022/09/22 08:29:42;;;;;;;2.13;0.70;;;;;;;;;;5027879;28;20046;-75
2022/09/22 08:32:11;;;;;;;0.57;0.45;;;;;;;;;;5028937;28;20061;-78
2022/09/22 08:34:41;;;;;;;1.23;0.68;;;;;;;;;;5025342;28;20498;-79
2022/09/22 08:37:11;;;;;;;1.08;0.70;;;;;;;;;;5026177;28;20111;-81
2022/09/22 08:39:40;;;;;;;0.82;0.82;;;;;;;;;;5024393;28;20052;-78
2022/09/22 08:42:11;;;;;;;0.80;0.65;;;;;;;;;;5030076;28;20050;-77
2022/09/22 08:44:43;;;;;;;2.97;0.70;;;;;;;;;;5019019;28;20052;-78
2022/09/22 08:47:15;;;;;;;1.23;1.10;;;;;;;;;;5029439;28;20104;-75
2022/09/22 08:52:37;;;;;;;0.57;0.57;;;;;;;;;;5025714;28;20049;-75
2022/09/22 08:55:08;;;;;;;0.63;0.63;;;;;;;;;;5018470;28;20116;-77
2022/09/22 08:57:55;;;;;;;0.63;0.63;;;;;;;;;;5028303;28;20049;-76
2022/09/22 09:00:26;;;;;;;0.82;0.60;;;;;;;;;;5028861;28;20071;-77
2022/09/22 09:02:58;;;;;;;3.22;1.25;;;;;;;;;;5028065;28;20502;-76
2022/09/22 09:05:46;;;;;;;1.17;0.75;;;;;;;;;;5025414;28;20049;-76
2022/09/22 09:08:35;;;;;;;1.42;0.98;;;;;;;;;;5023544;28;20129;-76
2022/09/22 09:11:11;;;;;;;0.95;0.60;;;;;;;;;;5029222;28;20113;-75
2022/09/22 09:13:47;;;;;;;0.93;0.80;;;;;;;;;;5028056;28;20474;-76
2022/09/22 09:16:24;;;;;;;2.47;1.10;;;;;;;;;;5024791;28;20073;-75
2022/09/22 09:18:54;;;;;;;2.35;0.60;;;;;;;;;;5026057;28;20830;-75
2022/09/22 09:21:23;;;;;;;1.98;0.68;;;;;;;;;;5026661;28;20711;-76
2022/09/22 09:23:53;;;;;;;2.10;0.88;;;;;;;;;;5029227;28;20082;-77
2022/09/22 09:26:42;;;;;;;0.75;0.40;;;;;;;;;;5028245;28;20446;-76
2022/09/22 09:29:16;;;;;;;2.20;0.57;;;;;;;;;;5028600;28;20576;-75
2022/09/22 09:31:47;;;;;;;2.17;0.73;;;;;;;;;;5027708;28;20053;-77
2022/09/22 09:34:17;;;;;;;2.20;0.75;;;;;;;;;;5019829;28;20049;-78
2022/09/22 09:36:48;;;;;;;0.30;0.30;;;;;;;;;;4977894;28;20063;-80
2022/09/22 09:39:20;;;;;;;0.98;0.65;;;;;;;;;;4990019;28;20046;-79
2022/09/22 09:41:49;;;;;;;0.68;0.50;;;;;;;;;;4988744;28;20125;-76
2022/09/22 09:44:20;;;;;;;2.00;0.70;;;;;;;;;;4989984;28;20082;-76
2022/09/22 09:46:55;;;;;;;1.13;0.60;;;;;;;;;;4990705;28;20042;-76
2022/09/22 09:49:24;;;;;;;1.75;0.60;;;;;;;;;;4989706;28;20482;-77
2022/09/22 09:51:53;;;;;;;1.10;0.50;;;;;;;;;;4988680;28;20428;-76
2022/09/22 09:54:22;;;;;;;0.82;0.60;;;;;;;;;;4990656;28;20054;-76
2022/09/22 09:57:07;;;;;;;0.43;0.40;;;;;;;;;;4990709;28;20046;-76
2022/09/22 10:02:26;;;;;;;2.10;0.45;;;;;;;;;;5023738;28;20042;-76
2022/09/22 10:04:56;;;;;;;0.55;0.45;;;;;;;;;;5027487;28;20061;-78
2022/09/22 10:07:25;;;;;;;1.13;0.73;;;;;;;;;;5028739;28;20080;-77
2022/09/22 10:09:54;;;;;;;3.97;0.68;;;;;;;;;;5030684;28;20072;-75
2022/09/22 10:12:25;;;;;;;0.43;0.43;;;;;;;;;;5031748;28;20054;-74
2022/09/22 10:14:54;;;;;;;0.90;0.68;;;;;;;;;;5031419;28;20462;-74
2022/09/22 10:17:27;;;;;;;1.20;0.73;;;;;;;;;;5030001;28;20525;-76
2022/09/22 10:20:19;;;;;;;1.38;0.70;;;;;;;;;;5032107;28;20048;-74
2022/09/22 10:22:48;;;;;;;0.93;0.50;;;;;;;;;;5029629;28;20124;-75
2022/09/22 10:25:21;;;;;;;1.00;0.88;;;;;;;;;;5027018;28;20083;-78
2022/09/22 10:28:00;;;;;;;1.60;0.47;;;;;;;;;;5027203;28;20481;-77
2022/09/22 10:30:36;;;;;;;0.65;0.52;;;;;;;;;;5027749;28;20053;-77
2022/09/22 10:33:16;;;;;;;0.55;0.40;;;;;;;;;;5027893;28;20064;-77
2022/09/22 10:35:46;;;;;;;1.13;0.80;;;;;;;;;;5017188;28;20045;-74
2022/09/22 10:38:19;;;;;;;0.50;0.30;;;;;;;;;;5027423;28;20049;-79
2022/09/22 10:40:50;;;;;;;1.65;0.50;;;;;;;;;;5027397;28;20050;-81
2022/09/22 10:43:35;;;;;;;0.30;0.25;;;;;;;;;;5024837;28;20060;-76
2022/09/22 10:46:27;;;;;;;0.22;0.22;;;;;;;;;;5027789;28;20133;-78
2022/09/22 10:49:04;;;;;;;0.40;0.30;;;;;;;;;;5025730;28;20063;-74
2022/09/22 10:51:39;;;;;;;0.32;0.28;;;;;;;;;;5026495;28;20200;-76
2022/09/22 10:54:17;;;;;;;0.10;0.10;;;;;;;;;;5027127;28;20552;-75
2022/09/22 10:56:48;;;;;;;0.38;0.20;;;;;;;;;;5020578;28;20085;-76
2022/09/22 10:59:32;;;;;;;0.20;0.20;;;;;;;;;;5023211;28;20099;-78
2022/09/22 11:02:12;;;;;;;0.32;0.30;;;;;;;;;;5027653;28;20108;-78
2022/09/22 11:04:48;;;;;;;0.30;0.30;;;;;;;;;;5020518;28;20128;-76
2022/09/22 11:13:08;;;;;;;0.47;0.47;;;;;;;;;;5024967;28;20049;-75
2022/09/22 11:15:53;;;;;;;1.20;0.55;;;;;;;;;;5024100;28;20055;-76
2022/09/22 11:18:34;;;;;;;0.47;0.47;;;;;;;;;;5029615;28;20135;-73
2022/09/22 11:21:15;;;;;;;0.80;0.40;;;;;;;;;;5025117;28;20226;-78
2022/09/22 11:23:59;;;;;;;0.68;0.47;;;;;;;;;;5028423;28;20133;-77
2022/09/22 11:26:34;;;;;;;0.20;0.20;;;;;;;;;;5030383;28;20416;-76
2022/09/22 11:29:21;;;;;;;0.45;0.30;;;;;;;;;;5018833;28;20504;-74
2022/09/22 11:31:55;;;;;;;1.10;0.60;;;;;;;;;;5010532;28;20168;-74
2022/09/22 11:34:38;;;;;;;0.45;0.30;;;;;;;;;;5026921;28;20046;-77
2022/09/22 11:37:27;;;;;;;0.28;0.28;;;;;;;;;;5014805;28;20515;-77
2022/09/22 11:40:05;;;;;;;0.20;0.17;;;;;;;;;;5027502;28;20054;-78
2022/09/22 11:42:37;;;;;;;0.10;0.10;;;;;;;;;;5026785;28;20413;-77
2022/09/22 11:45:08;;;;;;;0.20;0.20;;;;;;;;;;5020078;28;20460;-74
2022/09/22 11:47:45;;;;;;;0.85;0.20;;;;;;;;;;5030696;28;20104;-76
2022/09/22 11:50:31;;;;;;;0.38;0.30;;;;;;;;;;5019652;28;20053;-77
2022/09/22 11:53:19;;;;;;;0.60;0.35;;;;;;;;;;5022628;28;20076;-75
2022/09/22 11:55:55;;;;;;;0.32;0.30;;;;;;;;;;5023299;28;20088;-78
2022/09/22 11:58:26;;;;;;;0.38;0.38;;;;;;;;;;5013148;28;20077;-76
2022/09/22 12:00:58;;;;;;;0.80;0.35;;;;;;;;;;5022597;28;20092;-75
2022/09/22 12:03:30;;;;;;;0.38;0.30;;;;;;;;;;5015627;28;20508;-80
2022/09/22 12:06:03;;;;;;;0.60;0.40;;;;;;;;;;5008568;28;20066;-75
2022/09/22 12:08:38;;;;;;;0.70;0.20;;;;;;;;;;5020784;28;20476;-77
2022/09/22 12:11:09;;;;;;;0.40;0.40;;;;;;;;;;5025197;28;20045;-76
2022/09/22 12:13:41;;;;;;;0.57;0.40;;;;;;;;;;5013370;28;20105;-76
2022/09/22 12:16:14;;;;;;;0.10;0.10;;;;;;;;;;5011610;28;20198;-77
2022/09/22 12:18:46;;;;;;;0.75;0.30;;;;;;;;;;5019760;28;20128;-74
2022/09/22 12:21:21;;;;;;;0.30;0.30;;;;;;;;;;5011981;28;20078;-81
2022/09/22 12:23:52;;;;;;;0.50;0.50;;;;;;;;;;5015706;28;20045;-78
2022/09/22 12:26:27;;;;;;;1.27;0.77;;;;;;;;;;5019955;28;20092;-77
2022/09/22 12:28:58;;;;;;;0.40;0.32;;;;;;;;;;5020546;28;20057;-78
2022/09/22 12:31:34;;;;;;;0.43;0.20;;;;;;;;;;5018104;28;20102;-74
2022/09/22 12:34:04;;;;;;;0.57;0.35;;;;;;;;;;5021559;28;20053;-76
2022/09/22 12:36:34;;;;;;;0.47;0.28;;;;;;;;;;5012200;28;20054;-76
2022/09/22 12:39:16;;;;;;;0.98;0.40;;;;;;;;;;5019906;28;20049;-79
2022/09/22 12:41:48;;;;;;;0.40;0.40;;;;;;;;;;5021100;28;20085;-79
2022/09/22 12:44:19;;;;;;;0.20;0.20;;;;;;;;;;5021934;28;20057;-75
2022/09/22 12:46:48;;;;;;;1.02;0.30;;;;;;;;;;5012311;28;20061;-80
2022/09/22 12:49:19;;;;;;;0.43;0.38;;;;;;;;;;5025568;28;20425;-79
2022/09/22 12:51:48;;;;;;;0.30;0.20;;;;;;;;;;5021978;28;20136;-78
2022/09/22 12:54:47;;;;;;;0.75;0.52;;;;;;;;;;5016769;28;20050;-77
2022/09/22 12:57:36;;;;;;;0.20;0.20;;;;;;;;;;5018200;28;20107;-78
2022/09/22 13:00:16;;;;;;;0.35;0.35;;;;;;;;;;5019205;28;20045;-77
2022/09/22 13:02:46;;;;;;;0.20;0.20;;;;;;;;;;5020195;28;20084;-78
2022/09/22 13:05:33;;;;;;;0.30;0.30;;;;;;;;;;5015935;28;20129;-77
2022/09/22 13:08:03;;;;;;;0.52;0.38;;;;;;;;;;5023184;28;20072;-76
2022/09/22 13:10:54;;;;;;;1.20;0.50;;;;;;;;;;5025052;28;20586;-74
2022/09/22 13:13:24;;;;;;;1.48;0.40;;;;;;;;;;5023862;28;20038;-75
2022/09/22 13:15:58;;;;;;;0.30;0.30;;;;;;;;;;5027202;28;20513;-75
2022/09/22 13:18:31;;;;;;;0.30;0.30;;;;;;;;;;5028417;28;20053;-73
2022/09/22 13:21:00;;;;;;;0.20;0.20;;;;;;;;;;5029019;28;20041;-75
2022/09/22 13:23:29;;;;;;;0.80;0.50;;;;;;;;;;5025509;28;20132;-74
2022/09/22 13:26:07;;;;;;;1.58;0.50;;;;;;;;;;5025351;28;20077;-75
2022/09/22 13:28:36;;;;;;;0.45;0.30;;;;;;;;;;5020802;28;20053;-76
2022/09/22 13:31:13;;;;;;;0.30;0.30;;;;;;;;;;5025272;28;20057;-74
2022/09/22 13:33:41;;;;;;;0.52;0.43;;;;;;;;;;5027151;28;20046;-74
2022/09/22 13:36:12;;;;;;;0.57;0.38;;;;;;;;;;5029549;28;20045;-73
2022/09/22 13:38:44;;;;;;;0.45;0.43;;;;;;;;;;5026340;28;20064;-75
2022/09/22 13:41:14;;;;;;;0.43;0.30;;;;;;;;;;5021703;28;20044;-77
2022/09/22 13:43:44;;;;;;;0.82;0.47;;;;;;;;;;5029330;28;20057;-76
2022/09/22 13:46:19;;;;;;;0.20;0.20;;;;;;;;;;5027742;28;20047;-76
2022/09/22 13:48:48;;;;;;;0.45;0.40;;;;;;;;;;5030541;28;20052;-78
2022/09/22 13:51:19;;;;;;;0.43;0.40;;;;;;;;;;5024061;28;20049;-75
2022/09/22 13:53:50;;;;;;;0.57;0.40;;;;;;;;;;5028807;28;20053;-74
2022/09/22 13:56:20;;;;;;;3.90;0.40;;;;;;;;;;5029188;28;20049;-75
2022/09/22 13:58:50;;;;;;;0.77;0.77;;;;;;;;;;5025167;28;20052;-74
2022/09/22 14:01:20;;;;;;;0.77;0.60;;;;;;;;;;5025278;28;20241;-76
2022/09/22 14:03:50;;;;;;;2.13;0.40;;;;;;;;;;5021904;28;20092;-73
2022/09/22 14:06:20;;;;;;;0.75;0.63;;;;;;;;;;5027201;28;20085;-74
2022/09/22 14:08:50;;;;;;;1.08;0.60;;;;;;;;;;5031457;28;20049;-75
2022/09/22 14:11:20;;;;;;;1.30;0.55;;;;;;;;;;5024374;28;20061;-77
2022/09/22 14:14:00;;;;;;;1.85;0.95;;;;;;;;;;5029446;28;20050;-76
2022/09/22 14:16:32;;;;;;;0.20;0.20;;;;;;;;;;5017280;28;20053;-76
2022/09/22 14:19:04;;;;;;;1.33;0.45;;;;;;;;;;5021375;28;20045;-76
2022/09/22 14:21:33;;;;;;;0.82;0.50;;;;;;;;;;5017864;28;20361;-78
2022/09/22 14:24:02;;;;;;;1.33;1.02;;;;;;;;;;5025346;28;20045;-72
2022/09/22 14:26:34;;;;;;;0.65;0.38;;;;;;;;;;5025022;28;20092;-74
2022/09/22 14:29:13;;;;;;;0.30;0.30;;;;;;;;;;5023362;28;20054;-77
2022/09/22 14:31:45;;;;;;;2.60;0.35;;;;;;;;;;5028090;28;20104;-74
2022/09/22 14:34:17;;;;;;;1.65;0.40;;;;;;;;;;5027337;28;20049;-77
2022/09/22 14:36:49;;;;;;;1.85;0.52;;;;;;;;;;5020120;28;20045;-76
2022/09/22 14:39:19;;;;;;;0.63;0.40;;;;;;;;;;5023889;28;20137;-74
2022/09/22 14:41:51;;;;;;;0.82;0.30;;;;;;;;;;5026181;28;20075;-75
2022/09/22 14:44:26;;;;;;;0.73;0.38;;;;;;;;;;5023365;28;20525;-74
2022/09/22 14:46:57;;;;;;;1.23;0.50;;;;;;;;;;5024681;28;20546;-75
2022/09/22 14:49:41;;;;;;;0.30;0.30;;;;;;;;;;5018922;28;20401;-75
2022/09/22 14:52:14;;;;;;;0.50;0.32;;;;;;;;;;5025456;28;20060;-75
2022/09/22 14:54:44;;;;;;;0.85;0.50;;;;;;;;;;5027550;28;20080;-76
2022/09/22 14:57:14;;;;;;;0.93;0.40;;;;;;;;;;5024019;28;20057;-76
2022/09/22 15:02:39;;;;;;;0.20;0.20;;;;;;;;;;5024700;28;20050;-72
2022/09/22 15:05:09;;;;;;;0.30;0.30;;;;;;;;;;5021765;28;20049;-77
2022/09/22 15:07:38;;;;;;;0.30;0.30;;;;;;;;;;5027445;28;20053;-77
2022/09/22 15:10:08;;;;;;;0.47;0.30;;;;;;;;;;5027663;28;20133;-74
2022/09/22 15:12:41;;;;;;;0.30;0.30;;;;;;;;;;5029747;28;20133;-75
2022/09/22 15:15:21;;;;;;;0.30;0.30;;;;;;;;;;5021068;28;20125;-79
2022/09/22 15:20:41;;;;;;;0.88;0.40;;;;;;;;;;5022606;28;20048;-77
2022/09/22 15:23:17;;;;;;;0.30;0.30;;;;;;;;;;5021864;28;20047;-74
2022/09/22 15:25:46;;;;;;;0.52;0.38;;;;;;;;;;5023956;28;20045;-75
2022/09/22 15:28:15;;;;;;;0.30;0.30;;;;;;;;;;5026338;28;20103;-75
2022/09/22 15:30:46;;;;;;;0.65;0.50;;;;;;;;;;5023661;28;20528;-74
2022/09/22 15:33:16;;;;;;;3.63;0.30;;;;;;;;;;5023362;28;20053;-74